sensor_id;sensor_type;location;lat;lon;timestamp;pressure;altitude;pressure_sealevel;temperature;humidity
39105;BME280;46464;51.154;13.812;2022-07-05T00:01:23;99608.63;;;17.10;64.44
39105;BME280;46464;51.154;13.812;2022-07-05T00:03:50;99600.47;;;17.10;64.24
39105;BME280;46464;51.154;13.812;2022-07-05T00:06:17;99604.06;;;17.10;64.37
39105;BME280;46464;51.154;13.812;2022-07-05T00:08:43;99601.03;;;17.02;64.94
39105;BME280;46464;51.154;13.812;2022-07-05T00:11:10;99597.75;;;16.97;65.63
39105;BME280;46464;51.154;13.812;2022-07-05T00:13:37;99599.72;;;16.95;65.82
39105;BME280;46464;51.154;13.812;2022-07-05T00:16:03;99603.03;;;16.86;66.29
39105;BME280;46464;51.154;13.812;2022-07-05T00:18:30;99601.41;;;16.83;66.40
39105;BME280;46464;51.154;13.812;2022-07-05T00:20:57;99600.75;;;16.80;66.39
39105;BME280;46464;51.154;13.812;2022-07-05T00:23:23;99582.75;;;16.78;66.88
39105;BME280;46464;51.154;13.812;2022-07-05T00:25:50;99590.88;;;16.78;66.87
39105;BME280;46464;51.154;13.812;2022-07-05T00:28:16;99586.97;;;16.83;67.11
39105;BME280;46464;51.154;13.812;2022-07-05T00:30:43;99586.00;;;16.84;68.14
39105;BME280;46464;51.154;13.812;2022-07-05T00:33:09;99579.91;;;16.80;68.16
39105;BME280;46464;51.154;13.812;2022-07-05T00:35:37;99584.38;;;16.81;67.83
39105;BME280;46464;51.154;13.812;2022-07-05T00:38:04;99585.66;;;16.75;67.83
39105;BME280;46464;51.154;13.812;2022-07-05T00:40:31;99582.84;;;16.77;67.88
39105;BME280;46464;51.154;13.812;2022-07-05T00:42:57;99583.16;;;16.72;68.04
39105;BME280;46464;51.154;13.812;2022-07-05T00:45:24;99577.84;;;16.71;67.85
39105;BME280;46464;51.154;13.812;2022-07-05T00:47:51;99583.59;;;16.66;68.30
39105;BME280;46464;51.154;13.812;2022-07-05T00:50:17;99585.72;;;16.48;68.71
39105;BME280;46464;51.154;13.812;2022-07-05T00:52:45;99585.91;;;16.32;69.65
39105;BME280;46464;51.154;13.812;2022-07-05T00:55:12;99589.13;;;16.24;69.64
39105;BME280;46464;51.154;13.812;2022-07-05T00:57:38;99581.53;;;16.17;70.17
39105;BME280;46464;51.154;13.812;2022-07-05T01:00:06;99584.22;;;16.17;69.73
39105;BME280;46464;51.154;13.812;2022-07-05T01:02:32;99587.72;;;16.19;69.69
39105;BME280;46464;51.154;13.812;2022-07-05T01:04:59;99587.50;;;16.22;68.88
39105;BME280;46464;51.154;13.812;2022-07-05T01:07:26;99588.34;;;16.22;69.71
39105;BME280;46464;51.154;13.812;2022-07-05T01:09:54;99590.09;;;16.23;69.23
39105;BME280;46464;51.154;13.812;2022-07-05T01:12:21;99584.59;;;16.25;69.24
39105;BME280;46464;51.154;13.812;2022-07-05T01:14:48;99586.41;;;16.24;69.13
39105;BME280;46464;51.154;13.812;2022-07-05T01:17:15;99587.25;;;16.12;70.93
39105;BME280;46464;51.154;13.812;2022-07-05T01:19:42;99588.63;;;16.05;70.84
39105;BME280;46464;51.154;13.812;2022-07-05T01:22:15;99583.59;;;15.98;70.74
39105;BME280;46464;51.154;13.812;2022-07-05T01:24:44;99587.22;;;15.99;70.12
39105;BME280;46464;51.154;13.812;2022-07-05T01:27:11;99591.00;;;15.96;70.45
39105;BME280;46464;51.154;13.812;2022-07-05T01:29:38;99584.00;;;15.92;70.98
39105;BME280;46464;51.154;13.812;2022-07-05T01:32:04;99577.84;;;15.90;70.70
39105;BME280;46464;51.154;13.812;2022-07-05T01:34:31;99584.53;;;15.85;70.54
39105;BME280;46464;51.154;13.812;2022-07-05T01:36:58;99586.19;;;15.73;70.34
39105;BME280;46464;51.154;13.812;2022-07-05T01:39:25;99588.91;;;15.58;71.07
39105;BME280;46464;51.154;13.812;2022-07-05T01:41:52;99582.38;;;15.48;71.04
39105;BME280;46464;51.154;13.812;2022-07-05T01:44:18;99582.75;;;15.42;70.96
39105;BME280;46464;51.154;13.812;2022-07-05T01:46:45;99578.50;;;15.38;71.46
39105;BME280;46464;51.154;13.812;2022-07-05T01:49:16;99590.38;;;15.35;71.88
39105;BME280;46464;51.154;13.812;2022-07-05T01:51:50;99593.97;;;15.36;71.37
39105;BME280;46464;51.154;13.812;2022-07-05T01:54:18;99592.31;;;15.33;71.72
39105;BME280;46464;51.154;13.812;2022-07-05T01:56:45;99587.97;;;15.30;71.73
39105;BME280;46464;51.154;13.812;2022-07-05T01:59:13;99588.16;;;15.27;71.96
39105;BME280;46464;51.154;13.812;2022-07-05T02:01:40;99582.06;;;15.24;72.31
39105;BME280;46464;51.154;13.812;2022-07-05T02:04:08;99586.63;;;15.23;72.56
39105;BME280;46464;51.154;13.812;2022-07-05T02:06:35;99589.53;;;15.20;72.58
39105;BME280;46464;51.154;13.812;2022-07-05T02:09:04;99593.28;;;15.17;72.75
39105;BME280;46464;51.154;13.812;2022-07-05T02:11:32;99589.81;;;15.15;73.13
39105;BME280;46464;51.154;13.812;2022-07-05T02:13:58;99589.13;;;15.12;73.09
39105;BME280;46464;51.154;13.812;2022-07-05T02:16:26;99581.09;;;15.10;73.14
39105;BME280;46464;51.154;13.812;2022-07-05T02:18:53;99590.28;;;15.08;73.14
39105;BME280;46464;51.154;13.812;2022-07-05T02:21:19;99587.69;;;15.06;73.30
39105;BME280;46464;51.154;13.812;2022-07-05T02:23:46;99587.00;;;15.03;73.87
39105;BME280;46464;51.154;13.812;2022-07-05T02:26:12;99588.94;;;15.00;73.40
39105;BME280;46464;51.154;13.812;2022-07-05T02:28:39;99588.34;;;14.95;74.08
39105;BME280;46464;51.154;13.812;2022-07-05T02:31:06;99585.91;;;14.91;74.08
39105;BME280;46464;51.154;13.812;2022-07-05T02:33:33;99579.47;;;14.79;74.97
39105;BME280;46464;51.154;13.812;2022-07-05T02:36:09;99583.28;;;14.75;74.58
39105;BME280;46464;51.154;13.812;2022-07-05T02:38:37;99587.25;;;14.69;74.42
39105;BME280;46464;51.154;13.812;2022-07-05T02:41:05;99592.78;;;14.67;74.50
39105;BME280;46464;51.154;13.812;2022-07-05T02:43:32;99598.25;;;14.66;74.33
39105;BME280;46464;51.154;13.812;2022-07-05T02:46:00;99595.59;;;14.64;74.42
39105;BME280;46464;51.154;13.812;2022-07-05T02:48:27;99593.97;;;14.62;74.88
39105;BME280;46464;51.154;13.812;2022-07-05T02:50:53;99587.69;;;14.61;74.79
39105;BME280;46464;51.154;13.812;2022-07-05T02:53:20;99591.47;;;14.59;74.92
39105;BME280;46464;51.154;13.812;2022-07-05T02:55:46;99593.28;;;14.58;74.98
39105;BME280;46464;51.154;13.812;2022-07-05T02:58:13;99585.16;;;14.58;75.04
39105;BME280;46464;51.154;13.812;2022-07-05T03:00:39;99590.19;;;14.50;75.70
39105;BME280;46464;51.154;13.812;2022-07-05T03:03:06;99592.38;;;14.43;75.75
39105;BME280;46464;51.154;13.812;2022-07-05T03:05:33;99595.53;;;14.35;76.09
39105;BME280;46464;51.154;13.812;2022-07-05T03:07:59;99594.34;;;14.25;76.09
39105;BME280;46464;51.154;13.812;2022-07-05T03:10:26;99592.88;;;14.19;76.89
39105;BME280;46464;51.154;13.812;2022-07-05T03:12:52;99599.31;;;14.17;77.67
39105;BME280;46464;51.154;13.812;2022-07-05T03:15:19;99605.09;;;14.11;77.75
39105;BME280;46464;51.154;13.812;2022-07-05T03:17:45;99602.47;;;14.09;77.93
39105;BME280;46464;51.154;13.812;2022-07-05T03:20:12;99604.03;;;14.13;77.56
39105;BME280;46464;51.154;13.812;2022-07-05T03:22:39;99600.28;;;14.16;77.22
39105;BME280;46464;51.154;13.812;2022-07-05T03:25:06;99609.25;;;14.16;77.31
39105;BME280;46464;51.154;13.812;2022-07-05T03:27:32;99603.56;;;14.21;77.59
39105;BME280;46464;51.154;13.812;2022-07-05T03:29:59;99609.78;;;14.23;77.37
39105;BME280;46464;51.154;13.812;2022-07-05T03:32:25;99613.06;;;14.28;76.75
39105;BME280;46464;51.154;13.812;2022-07-05T03:34:52;99617.31;;;14.32;77.19
39105;BME280;46464;51.154;13.812;2022-07-05T03:37:19;99616.28;;;14.35;76.95
39105;BME280;46464;51.154;13.812;2022-07-05T03:39:45;99630.03;;;14.46;78.11
39105;BME280;46464;51.154;13.812;2022-07-05T03:42:12;99625.75;;;14.42;78.37
39105;BME280;46464;51.154;13.812;2022-07-05T03:44:39;99630.22;;;14.43;77.89
39105;BME280;46464;51.154;13.812;2022-07-05T03:47:05;99625.50;;;14.47;77.96
39105;BME280;46464;51.154;13.812;2022-07-05T03:49:32;99628.06;;;14.34;78.44
39105;BME280;46464;51.154;13.812;2022-07-05T03:51:58;99628.75;;;14.38;77.76
39105;BME280;46464;51.154;13.812;2022-07-05T03:54:25;99633.00;;;14.42;77.63
39105;BME280;46464;51.154;13.812;2022-07-05T03:56:52;99633.50;;;14.48;77.69
39105;BME280;46464;51.154;13.812;2022-07-05T03:59:18;99631.50;;;14.52;78.37
39105;BME280;46464;51.154;13.812;2022-07-05T04:01:45;99636.72;;;14.55;78.17
39105;BME280;46464;51.154;13.812;2022-07-05T04:04:11;99637.50;;;14.57;77.93
39105;BME280;46464;51.154;13.812;2022-07-05T04:06:38;99639.69;;;14.50;79.27
39105;BME280;46464;51.154;13.812;2022-07-05T04:09:05;99643.84;;;14.56;78.34
39105;BME280;46464;51.154;13.812;2022-07-05T04:11:31;99653.91;;;14.54;78.25
39105;BME280;46464;51.154;13.812;2022-07-05T04:13:58;99652.09;;;14.39;80.57
39105;BME280;46464;51.154;13.812;2022-07-05T04:16:25;99652.38;;;14.50;79.52
39105;BME280;46464;51.154;13.812;2022-07-05T04:18:52;99653.81;;;14.56;79.42
39105;BME280;46464;51.154;13.812;2022-07-05T04:21:19;99656.03;;;14.65;79.05
39105;BME280;46464;51.154;13.812;2022-07-05T04:23:45;99652.06;;;14.71;78.65
39105;BME280;46464;51.154;13.812;2022-07-05T04:26:12;99669.81;;;14.75;78.69
39105;BME280;46464;51.154;13.812;2022-07-05T04:28:39;99670.34;;;14.81;78.03
39105;BME280;46464;51.154;13.812;2022-07-05T04:31:05;99681.84;;;14.85;78.60
39105;BME280;46464;51.154;13.812;2022-07-05T04:33:32;99663.41;;;14.92;78.15
39105;BME280;46464;51.154;13.812;2022-07-05T04:35:58;99670.28;;;14.97;77.72
39105;BME280;46464;51.154;13.812;2022-07-05T04:38:25;99658.91;;;15.07;77.82
39105;BME280;46464;51.154;13.812;2022-07-05T04:40:52;99660.16;;;15.15;78.28
39105;BME280;46464;51.154;13.812;2022-07-05T04:43:18;99667.03;;;15.21;78.26
39105;BME280;46464;51.154;13.812;2022-07-05T04:45:45;99676.44;;;15.30;79.14
39105;BME280;46464;51.154;13.812;2022-07-05T04:48:11;99677.41;;;15.43;78.98
39105;BME280;46464;51.154;13.812;2022-07-05T04:50:38;99675.00;;;15.53;77.75
39105;BME280;46464;51.154;13.812;2022-07-05T04:53:04;99676.53;;;15.57;78.39
39105;BME280;46464;51.154;13.812;2022-07-05T04:55:31;99674.91;;;15.69;78.52
39105;BME280;46464;51.154;13.812;2022-07-05T04:57:57;99678.56;;;15.82;77.66
39105;BME280;46464;51.154;13.812;2022-07-05T05:00:24;99675.28;;;15.92;77.01
39105;BME280;46464;51.154;13.812;2022-07-05T05:02:50;99679.34;;;15.99;77.60
39105;BME280;46464;51.154;13.812;2022-07-05T05:05:17;99687.63;;;16.10;77.86
39105;BME280;46464;51.154;13.812;2022-07-05T05:07:44;99680.16;;;16.14;78.00
39105;BME280;46464;51.154;13.812;2022-07-05T05:10:11;99683.22;;;16.22;77.68
39105;BME280;46464;51.154;13.812;2022-07-05T05:12:38;99687.09;;;16.33;77.21
39105;BME280;46464;51.154;13.812;2022-07-05T05:15:05;99683.88;;;16.40;77.13
39105;BME280;46464;51.154;13.812;2022-07-05T05:17:41;99687.91;;;16.48;77.29
39105;BME280;46464;51.154;13.812;2022-07-05T05:20:16;99684.56;;;16.57;77.40
39105;BME280;46464;51.154;13.812;2022-07-05T05:22:43;99677.34;;;16.70;77.17
39105;BME280;46464;51.154;13.812;2022-07-05T05:25:11;99676.34;;;16.99;76.62
39105;BME280;46464;51.154;13.812;2022-07-05T05:27:45;99678.31;;;17.74;73.87
39105;BME280;46464;51.154;13.812;2022-07-05T05:30:15;99676.56;;;18.71;70.04
39105;BME280;46464;51.154;13.812;2022-07-05T05:32:42;99668.03;;;19.59;66.13
39105;BME280;46464;51.154;13.812;2022-07-05T05:35:09;99670.38;;;20.53;62.11
39105;BME280;46464;51.154;13.812;2022-07-05T05:37:49;99670.81;;;21.65;56.18
39105;BME280;46464;51.154;13.812;2022-07-05T05:40:16;99669.50;;;22.41;52.70
39105;BME280;46464;51.154;13.812;2022-07-05T05:42:43;99669.66;;;23.18;51.25
39105;BME280;46464;51.154;13.812;2022-07-05T05:45:10;99669.56;;;23.67;49.29
39105;BME280;46464;51.154;13.812;2022-07-05T05:50:11;99672.13;;;24.80;44.23
39105;BME280;46464;51.154;13.812;2022-07-05T05:52:37;99668.81;;;24.94;44.56
39105;BME280;46464;51.154;13.812;2022-07-05T05:55:04;99661.03;;;25.87;43.18
39105;BME280;46464;51.154;13.812;2022-07-05T05:57:33;99667.47;;;26.04;43.29
39105;BME280;46464;51.154;13.812;2022-07-05T06:00:01;99672.59;;;26.25;41.74
39105;BME280;46464;51.154;13.812;2022-07-05T06:02:30;99672.91;;;26.98;40.45
39105;BME280;46464;51.154;13.812;2022-07-05T06:04:57;99675.47;;;26.83;39.31
39105;BME280;46464;51.154;13.812;2022-07-05T06:07:24;99678.94;;;26.93;38.58
39105;BME280;46464;51.154;13.812;2022-07-05T06:09:50;99681.38;;;26.88;39.63
39105;BME280;46464;51.154;13.812;2022-07-05T06:12:17;99685.66;;;26.90;39.09
39105;BME280;46464;51.154;13.812;2022-07-05T06:14:43;99683.19;;;26.71;39.40
39105;BME280;46464;51.154;13.812;2022-07-05T06:17:10;99678.41;;;27.56;37.83
39105;BME280;46464;51.154;13.812;2022-07-05T06:19:36;99683.75;;;27.57;37.46
39105;BME280;46464;51.154;13.812;2022-07-05T06:22:03;99682.03;;;27.15;37.44
39105;BME280;46464;51.154;13.812;2022-07-05T06:24:29;99680.16;;;27.07;37.23
39105;BME280;46464;51.154;13.812;2022-07-05T06:26:56;99692.03;;;27.16;37.21
39105;BME280;46464;51.154;13.812;2022-07-05T06:29:22;99688.97;;;26.43;38.78
39105;BME280;46464;51.154;13.812;2022-07-05T06:31:49;99687.09;;;26.52;37.93
39105;BME280;46464;51.154;13.812;2022-07-05T06:34:15;99689.78;;;26.86;37.42
39105;BME280;46464;51.154;13.812;2022-07-05T06:36:42;99686.59;;;26.56;37.62
39105;BME280;46464;51.154;13.812;2022-07-05T06:39:08;99694.97;;;27.39;36.13
39105;BME280;46464;51.154;13.812;2022-07-05T06:41:35;99692.38;;;27.21;36.46
39105;BME280;46464;51.154;13.812;2022-07-05T06:44:01;99700.03;;;28.00;35.68
39105;BME280;46464;51.154;13.812;2022-07-05T06:46:47;99694.78;;;27.57;35.33
39105;BME280;46464;51.154;13.812;2022-07-05T06:49:14;99697.41;;;27.59;36.11
39105;BME280;46464;51.154;13.812;2022-07-05T06:51:40;99693.97;;;27.15;35.59
39105;BME280;46464;51.154;13.812;2022-07-05T06:54:07;99690.63;;;26.79;36.42
39105;BME280;46464;51.154;13.812;2022-07-05T06:56:54;99695.75;;;26.65;36.39
39105;BME280;46464;51.154;13.812;2022-07-05T06:59:42;99700.53;;;26.38;36.84
39105;BME280;46464;51.154;13.812;2022-07-05T07:02:25;99697.72;;;25.96;36.28
39105;BME280;46464;51.154;13.812;2022-07-05T07:04:52;99691.50;;;25.93;36.62
39105;BME280;46464;51.154;13.812;2022-07-05T07:07:37;99690.84;;;25.21;37.58
39105;BME280;46464;51.154;13.812;2022-07-05T07:10:22;99687.94;;;25.22;38.77
39105;BME280;46464;51.154;13.812;2022-07-05T07:12:54;99686.41;;;25.72;38.21
39105;BME280;46464;51.154;13.812;2022-07-05T07:15:21;99688.69;;;25.77;37.43
39105;BME280;46464;51.154;13.812;2022-07-05T07:17:48;99688.03;;;25.83;37.23
39105;BME280;46464;51.154;13.812;2022-07-05T07:20:14;99693.88;;;25.88;37.27
39105;BME280;46464;51.154;13.812;2022-07-05T07:22:41;99691.13;;;25.88;36.77
39105;BME280;46464;51.154;13.812;2022-07-05T07:25:08;99693.22;;;25.94;36.89
39105;BME280;46464;51.154;13.812;2022-07-05T07:27:44;99694.91;;;25.53;37.28
39105;BME280;46464;51.154;13.812;2022-07-05T07:30:13;99692.66;;;25.56;37.97
39105;BME280;46464;51.154;13.812;2022-07-05T07:32:40;99687.50;;;25.53;37.04
39105;BME280;46464;51.154;13.812;2022-07-05T07:35:08;99690.19;;;25.45;37.83
39105;BME280;46464;51.154;13.812;2022-07-05T07:37:35;99693.44;;;25.04;37.91
39105;BME280;46464;51.154;13.812;2022-07-05T07:40:04;99682.19;;;25.34;37.89
39105;BME280;46464;51.154;13.812;2022-07-05T07:42:31;99679.22;;;25.80;37.03
39105;BME280;46464;51.154;13.812;2022-07-05T07:44:58;99675.19;;;25.66;35.11
39105;BME280;46464;51.154;13.812;2022-07-05T07:47:24;99680.06;;;25.72;36.29
39105;BME280;46464;51.154;13.812;2022-07-05T07:49:51;99677.63;;;25.69;35.27
39105;BME280;46464;51.154;13.812;2022-07-05T07:52:17;99672.91;;;25.87;34.58
39105;BME280;46464;51.154;13.812;2022-07-05T07:54:44;99677.66;;;25.77;34.55
39105;BME280;46464;51.154;13.812;2022-07-05T07:57:11;99678.16;;;25.72;35.14
39105;BME280;46464;51.154;13.812;2022-07-05T07:59:37;99679.97;;;25.55;33.48
39105;BME280;46464;51.154;13.812;2022-07-05T08:02:04;99681.16;;;25.53;32.81
39105;BME280;46464;51.154;13.812;2022-07-05T08:04:30;99682.44;;;25.22;34.05
39105;BME280;46464;51.154;13.812;2022-07-05T08:06:57;99677.09;;;25.39;33.38
39105;BME280;46464;51.154;13.812;2022-07-05T08:09:24;99677.88;;;25.49;33.39
39105;BME280;46464;51.154;13.812;2022-07-05T08:11:50;99668.63;;;25.58;33.57
39105;BME280;46464;51.154;13.812;2022-07-05T08:14:17;99676.09;;;25.74;33.54
39105;BME280;46464;51.154;13.812;2022-07-05T08:16:47;99677.09;;;25.65;34.60
39105;BME280;46464;51.154;13.812;2022-07-05T08:19:19;99677.47;;;25.44;33.31
39105;BME280;46464;51.154;13.812;2022-07-05T08:22:05;99676.31;;;25.47;32.66
39105;BME280;46464;51.154;13.812;2022-07-05T08:24:35;99677.31;;;25.72;33.69
39105;BME280;46464;51.154;13.812;2022-07-05T08:27:01;99673.47;;;25.65;33.84
39105;BME280;46464;51.154;13.812;2022-07-05T08:29:28;99675.59;;;25.44;33.92
39105;BME280;46464;51.154;13.812;2022-07-05T08:31:54;99677.75;;;25.59;32.33
39105;BME280;46464;51.154;13.812;2022-07-05T08:34:21;99673.53;;;25.73;31.70
39105;BME280;46464;51.154;13.812;2022-07-05T08:36:48;99668.38;;;25.78;31.73
39105;BME280;46464;51.154;13.812;2022-07-05T08:39:15;99663.97;;;25.85;31.61
39105;BME280;46464;51.154;13.812;2022-07-05T08:41:42;99674.09;;;25.85;31.32
39105;BME280;46464;51.154;13.812;2022-07-05T08:44:09;99670.69;;;25.91;30.87
39105;BME280;46464;51.154;13.812;2022-07-05T08:46:38;99673.13;;;26.02;31.59
39105;BME280;46464;51.154;13.812;2022-07-05T08:49:05;99675.75;;;26.04;31.52
39105;BME280;46464;51.154;13.812;2022-07-05T08:51:38;99674.94;;;26.12;32.14
39105;BME280;46464;51.154;13.812;2022-07-05T08:54:10;99672.06;;;26.21;32.28
39105;BME280;46464;51.154;13.812;2022-07-05T08:56:41;99677.19;;;26.16;32.17
39105;BME280;46464;51.154;13.812;2022-07-05T08:59:27;99670.06;;;26.56;30.85
39105;BME280;46464;51.154;13.812;2022-07-05T09:01:55;99666.63;;;26.54;30.64
39105;BME280;46464;51.154;13.812;2022-07-05T09:04:23;99665.13;;;26.68;30.88
39105;BME280;46464;51.154;13.812;2022-07-05T09:06:52;99666.47;;;26.56;29.04
39105;BME280;46464;51.154;13.812;2022-07-05T09:09:22;99668.91;;;26.67;30.15
39105;BME280;46464;51.154;13.812;2022-07-05T09:11:50;99669.03;;;26.49;29.70
39105;BME280;46464;51.154;13.812;2022-07-05T09:14:38;99671.47;;;26.69;30.03
39105;BME280;46464;51.154;13.812;2022-07-05T09:17:05;99664.81;;;26.88;30.19
39105;BME280;46464;51.154;13.812;2022-07-05T09:19:31;99674.44;;;26.84;29.63
39105;BME280;46464;51.154;13.812;2022-07-05T09:22:06;99658.44;;;27.04;31.19
39105;BME280;46464;51.154;13.812;2022-07-05T09:24:44;99659.81;;;27.33;28.75
39105;BME280;46464;51.154;13.812;2022-07-05T09:27:11;99662.72;;;27.39;30.12
39105;BME280;46464;51.154;13.812;2022-07-05T09:29:38;99661.34;;;27.60;29.51
39105;BME280;46464;51.154;13.812;2022-07-05T09:32:26;99654.31;;;27.97;27.50
39105;BME280;46464;51.154;13.812;2022-07-05T09:34:51;99663.09;;;28.01;27.93
39105;BME280;46464;51.154;13.812;2022-07-05T09:37:17;99667.22;;;27.41;28.55
39105;BME280;46464;51.154;13.812;2022-07-05T09:39:44;99652.03;;;27.20;28.52
39105;BME280;46464;51.154;13.812;2022-07-05T09:44:54;99657.41;;;27.13;28.10
39105;BME280;46464;51.154;13.812;2022-07-05T09:47:22;99657.03;;;27.16;29.12
39105;BME280;46464;51.154;13.812;2022-07-05T09:49:54;99661.03;;;27.05;29.02
39105;BME280;46464;51.154;13.812;2022-07-05T09:52:36;99652.22;;;27.10;28.70
39105;BME280;46464;51.154;13.812;2022-07-05T09:55:11;99648.59;;;27.34;28.98
39105;BME280;46464;51.154;13.812;2022-07-05T10:00:36;99659.16;;;27.95;28.20
39105;BME280;46464;51.154;13.812;2022-07-05T10:03:02;99657.41;;;28.11;28.53
39105;BME280;46464;51.154;13.812;2022-07-05T10:05:31;99654.94;;;28.16;27.67
39105;BME280;46464;51.154;13.812;2022-07-05T10:07:59;99654.88;;;28.24;27.23
39105;BME280;46464;51.154;13.812;2022-07-05T10:10:31;99656.56;;;27.94;27.01
39105;BME280;46464;51.154;13.812;2022-07-05T10:12:59;99650.56;;;27.82;26.68
39105;BME280;46464;51.154;13.812;2022-07-05T10:15:29;99647.28;;;27.86;27.04
39105;BME280;46464;51.154;13.812;2022-07-05T10:18:06;99656.59;;;27.85;26.42
39105;BME280;46464;51.154;13.812;2022-07-05T10:23:12;99654.06;;;28.15;28.11
39105;BME280;46464;51.154;13.812;2022-07-05T10:25:41;99652.63;;;28.28;26.65
39105;BME280;46464;51.154;13.812;2022-07-05T10:28:09;99659.34;;;28.33;25.90
39105;BME280;46464;51.154;13.812;2022-07-05T10:30:36;99648.88;;;28.52;26.60
39105;BME280;46464;51.154;13.812;2022-07-05T10:33:05;99646.16;;;28.75;26.86
39105;BME280;46464;51.154;13.812;2022-07-05T10:35:33;99660.56;;;28.31;25.76
39105;BME280;46464;51.154;13.812;2022-07-05T10:38:01;99653.91;;;28.17;26.97
39105;BME280;46464;51.154;13.812;2022-07-05T10:40:30;99656.94;;;28.30;26.40
39105;BME280;46464;51.154;13.812;2022-07-05T10:43:00;99643.56;;;28.42;25.70
39105;BME280;46464;51.154;13.812;2022-07-05T10:45:34;99642.00;;;28.16;26.75
39105;BME280;46464;51.154;13.812;2022-07-05T10:48:11;99642.38;;;28.37;27.01
39105;BME280;46464;51.154;13.812;2022-07-05T10:53:10;99645.88;;;28.85;26.16
39105;BME280;46464;51.154;13.812;2022-07-05T10:55:56;99643.59;;;28.65;25.99
39105;BME280;46464;51.154;13.812;2022-07-05T10:58:27;99644.63;;;28.41;26.33
39105;BME280;46464;51.154;13.812;2022-07-05T11:11:40;99643.22;;;28.14;26.33
39105;BME280;46464;51.154;13.812;2022-07-05T11:20:10;99642.88;;;28.17;26.27
39105;BME280;46464;51.154;13.812;2022-07-05T11:22:59;99637.50;;;28.15;25.85
39105;BME280;46464;51.154;13.812;2022-07-05T11:25:36;99641.31;;;28.14;26.78
39105;BME280;46464;51.154;13.812;2022-07-05T11:30:48;99635.75;;;28.77;27.71
39105;BME280;46464;51.154;13.812;2022-07-05T11:33:39;99638.56;;;29.15;25.87
39105;BME280;46464;51.154;13.812;2022-07-05T11:36:18;99635.72;;;29.24;26.08
39105;BME280;46464;51.154;13.812;2022-07-05T11:41:47;99631.88;;;28.63;26.59
39105;BME280;46464;51.154;13.812;2022-07-05T11:44:15;99637.38;;;28.72;25.50
39105;BME280;46464;51.154;13.812;2022-07-05T11:46:44;99634.88;;;28.54;25.41
39105;BME280;46464;51.154;13.812;2022-07-05T11:49:22;99631.09;;;28.78;25.52
39105;BME280;46464;51.154;13.812;2022-07-05T11:51:56;99629.19;;;29.02;25.18
39105;BME280;46464;51.154;13.812;2022-07-05T11:54:25;99624.84;;;28.84;25.87
39105;BME280;46464;51.154;13.812;2022-07-05T11:56:52;99627.84;;;28.20;26.04
39105;BME280;46464;51.154;13.812;2022-07-05T11:59:20;99628.63;;;27.89;26.36
39105;BME280;46464;51.154;13.812;2022-07-05T12:01:47;99625.06;;;27.80;27.32
39105;BME280;46464;51.154;13.812;2022-07-05T12:04:24;99626.44;;;28.15;27.25
39105;BME280;46464;51.154;13.812;2022-07-05T12:06:51;99627.75;;;28.28;26.05
39105;BME280;46464;51.154;13.812;2022-07-05T12:09:27;99627.84;;;28.43;25.74
39105;BME280;46464;51.154;13.812;2022-07-05T12:11:55;99616.09;;;28.72;27.12
39105;BME280;46464;51.154;13.812;2022-07-05T12:14:50;99612.06;;;28.51;25.54
39105;BME280;46464;51.154;13.812;2022-07-05T12:17:18;99618.63;;;28.27;25.54
39105;BME280;46464;51.154;13.812;2022-07-05T12:19:52;99623.78;;;28.30;25.87
39105;BME280;46464;51.154;13.812;2022-07-05T12:22:34;99612.56;;;28.32;25.90
39105;BME280;46464;51.154;13.812;2022-07-05T12:25:03;99612.56;;;28.32;25.67
39105;BME280;46464;51.154;13.812;2022-07-05T12:27:33;99610.44;;;28.65;26.06
39105;BME280;46464;51.154;13.812;2022-07-05T12:30:00;99600.91;;;28.91;25.87
39105;BME280;46464;51.154;13.812;2022-07-05T12:32:29;99598.25;;;28.98;24.85
39105;BME280;46464;51.154;13.812;2022-07-05T12:34:58;99607.28;;;29.15;25.15
39105;BME280;46464;51.154;13.812;2022-07-05T12:37:31;99608.28;;;28.99;24.96
39105;BME280;46464;51.154;13.812;2022-07-05T12:40:05;99604.88;;;29.12;24.78
39105;BME280;46464;51.154;13.812;2022-07-05T12:42:37;99601.53;;;29.55;24.72
39105;BME280;46464;51.154;13.812;2022-07-05T12:47:36;99609.66;;;29.18;25.02
39105;BME280;46464;51.154;13.812;2022-07-05T12:50:13;99618.06;;;28.87;25.57
39105;BME280;46464;51.154;13.812;2022-07-05T12:52:59;99617.38;;;28.38;25.95
39105;BME280;46464;51.154;13.812;2022-07-05T12:55:36;99611.19;;;27.88;25.70
39105;BME280;46464;51.154;13.812;2022-07-05T12:58:21;99608.63;;;27.86;26.66
39105;BME280;46464;51.154;13.812;2022-07-05T13:00:47;99605.22;;;27.76;26.90
39105;BME280;46464;51.154;13.812;2022-07-05T13:03:14;99603.06;;;27.55;26.41
39105;BME280;46464;51.154;13.812;2022-07-05T13:05:42;99608.63;;;27.14;26.78
39105;BME280;46464;51.154;13.812;2022-07-05T13:08:08;99596.41;;;27.08;27.07
39105;BME280;46464;51.154;13.812;2022-07-05T13:10:35;99598.28;;;27.24;27.98
39105;BME280;46464;51.154;13.812;2022-07-05T13:13:11;99596.19;;;27.26;27.95
39105;BME280;46464;51.154;13.812;2022-07-05T13:15:38;99594.91;;;27.62;28.11
39105;BME280;46464;51.154;13.812;2022-07-05T13:18:05;99601.97;;;27.73;27.03
39105;BME280;46464;51.154;13.812;2022-07-05T13:20:32;99592.19;;;27.93;26.58
39105;BME280;46464;51.154;13.812;2022-07-05T13:22:59;99585.28;;;27.97;27.32
39105;BME280;46464;51.154;13.812;2022-07-05T13:25:26;99589.19;;;28.11;25.73
39105;BME280;46464;51.154;13.812;2022-07-05T13:27:52;99592.50;;;28.07;27.03
39105;BME280;46464;51.154;13.812;2022-07-05T13:30:19;99590.50;;;28.24;26.89
39105;BME280;46464;51.154;13.812;2022-07-05T13:32:45;99589.34;;;28.41;25.82
39105;BME280;46464;51.154;13.812;2022-07-05T13:35:12;99592.38;;;28.55;26.43
39105;BME280;46464;51.154;13.812;2022-07-05T13:37:38;99582.78;;;28.42;25.77